Time,TemperatureF,DewpointF,PressureIn,WindDirection,WindDirectionDegrees,WindSpeedMPH,WindSpeedGustMPH,Humidity,HourlyPrecipIn,Conditions,Clouds,dailyrainin,SolarRadiationWatts/m^2,SoftwareType,DateUTC
2013-04-04 00:10:00,56.8,43.1,29.58,ENE,68,1.0,2.0,60,0.00,,,0.00,0,Wunderground v.1.15,2013-04-03 22:10:00,
2013-04-04 00:15:00,56.9,43.6,29.58,ENE,61,1.0,2.0,61,0.00,,,0.00,0,Wunderground v.1.15,2013-04-03 22:15:00,
2013-04-04 00:25:00,56.9,43.2,29.55,NE,49,1.0,3.0,60,0.00,,,0.00,0,Wunderground v.1.15,2013-04-03 22:25:00,
2013-04-04 00:35:00,56.7,43.0,29.53,NNE,29,3.0,4.0,60,0.00,,,0.00,0,Wunderground v.1.15,2013-04-03 22:35:00,
2013-04-04 00:50:00,56.6,41.5,29.54,NE,36,3.0,3.0,57,0.00,,,0.00,0,Wunderground v.1.15,2013-04-03 22:50:00,
2013-04-04 01:05:00,56.9,41.4,29.55,NE,46,2.0,2.0,56,0.00,,,0.00,0,Wunderground v.1.15,2013-04-03 23:05:00,
2013-04-04 01:20:00,57.2,41.2,29.54,North,360,1.0,1.0,55,0.00,,,0.00,0,Wunderground v.1.15,2013-04-03 23:20:00,
2013-04-04 01:31:00,57.5,41.0,29.55,NNW,343,2.0,2.0,54,0.00,,,0.00,0,Wunderground v.1.15,2013-04-03 23:31:00,
2013-04-04 01:40:00,57.6,43.4,29.51,NE,45,2.0,2.0,59,0.00,,,0.00,0,Wunderground v.1.15,2013-04-03 23:40:00,
2013-04-04 01:55:00,57.0,43.7,29.51,North,360,1.0,2.0,61,0.00,,,0.00,0,Wunderground v.1.15,2013-04-03 23:55:00,
2013-04-04 02:05:00,56.6,43.3,29.52,NNE,13,1.0,1.0,61,0.00,,,0.00,0,Wunderground v.1.15,2013-04-04 00:05:00,
2013-04-04 02:11:00,56.4,43.5,29.51,North,5,1.0,1.0,62,0.00,,,0.00,0,Wunderground v.1.15,2013-04-04 00:11:00,
2013-04-04 02:20:00,56.3,43.4,29.51,North,5,1.0,2.0,62,0.00,,,0.00,0,Wunderground v.1.15,2013-04-04 00:20:00,
2013-04-04 02:26:00,56.2,43.8,29.51,NNW,339,1.0,2.0,63,0.00,,,0.00,0,Wunderground v.1.15,2013-04-04 00:26:00,
2013-04-04 02:35:00,55.8,43.8,29.51,WNW,285,2.0,5.0,64,0.00,,,0.00,0,Wunderground v.1.15,2013-04-04 00:35:00,
2013-04-04 02:45:00,55.3,43.7,29.51,WNW,294,2.0,2.0,65,0.00,,,0.00,0,Wunderground v.1.15,2013-04-04 00:45:00,
2013-04-04 02:56:00,55.1,43.9,29.51,WNW,294,1.0,1.0,66,0.00,,,0.00,0,Wunderground v.1.15,2013-04-04 00:56:00,
2013-04-04 03:05:00,55.1,44.3,29.52,WNW,284,2.0,2.0,67,0.00,,,0.00,0,Wunderground v.1.15,2013-04-04 01:05:00,
2013-04-04 03:10:00,55.0,44.6,29.51,WNW,285,2.0,2.0,68,0.00,,,0.00,0,Wunderground v.1.15,2013-04-04 01:10:00,
2013-04-04 03:20:00,54.9,44.5,29.50,WNW,284,2.0,2.0,68,0.00,,,0.00,0,Wunderground v.1.15,2013-04-04 01:20:00,
2013-04-04 03:31:00,54.9,44.9,29.49,ENE,69,2.0,2.0,69,0.00,,,0.00,0,Wunderground v.1.15,2013-04-04 01:31:00,
2013-04-04 03:40:00,54.8,44.8,29.49,ENE,68,0.0,2.0,69,0.00,,,0.00,0,Wunderground v.1.15,2013-04-04 01:40:00,
2013-04-04 03:55:00,54.7,45.1,29.50,ENE,69,1.0,1.0,70,0.00,,,0.00,0,Wunderground v.1.15,2013-04-04 01:55:00,
2013-04-04 04:05:00,54.7,45.1,29.49,ENE,69,0.0,0.0,70,0.00,,,0.00,0,Wunderground v.1.15,2013-04-04 02:05:00,
2013-04-04 04:15:00,54.8,45.6,29.48,ENE,69,1.0,1.0,71,0.00,,,0.00,0,Wunderground v.1.15,2013-04-04 02:15:00,
2013-04-04 04:26:00,54.7,45.5,29.48,East,96,1.0,1.0,71,0.00,,,0.00,0,Wunderground v.1.15,2013-04-04 02:26:00,
2013-04-04 04:35:00,54.6,45.8,29.48,East,96,1.0,2.0,72,0.00,,,0.00,0,Wunderground v.1.15,2013-04-04 02:35:00,
2013-04-04 04:41:00,54.6,45.8,29.48,NW,314,1.0,2.0,72,0.00,,,0.00,0,Wunderground v.1.15,2013-04-04 02:41:00,
2013-04-04 04:50:00,54.7,46.2,29.48,SE,145,2.0,2.0,73,0.00,,,0.00,0,Wunderground v.1.15,2013-04-04 02:50:00,
2013-04-04 05:05:00,55.0,46.9,29.48,SW,229,1.0,2.0,74,0.00,,,0.00,0,Wunderground v.1.15,2013-04-04 03:05:00,
2013-04-04 05:16:00,55.6,47.8,29.48,SW,231,2.0,2.0,75,0.00,,,0.00,0,Wunderground v.1.15,2013-04-04 03:16:00,
2013-04-04 05:30:00,56.2,49.1,29.47,WSW,238,1.0,1.0,77,0.00,,,0.00,0,Wunderground v.1.15,2013-04-04 03:30:00,
2013-04-04 05:40:00,56.4,49.3,29.46,WSW,238,1.0,1.0,77,0.00,,,0.00,0,Wunderground v.1.15,2013-04-04 03:40:00,
2013-04-04 05:51:00,56.3,49.2,29.46,WSW,238,0.0,0.0,77,0.00,,,0.00,0,Wunderground v.1.15,2013-04-04 03:51:00,
2013-04-04 06:10:00,56.1,49.0,29.46,SSW,207,1.0,3.0,77,0.00,,,0.00,0,Wunderground v.1.15,2013-04-04 04:10:00,
2013-04-04 06:15:00,56.1,49.0,29.46,SSW,200,1.0,3.0,77,0.00,,,0.00,0,Wunderground v.1.15,2013-04-04 04:15:00,
2013-04-04 06:25:00,56.0,48.9,29.45,SSW,200,0.0,0.0,77,0.00,,,0.00,0,Wunderground v.1.15,2013-04-04 04:25:00,
2013-04-04 06:35:00,56.1,49.3,29.45,SSW,200,0.0,0.0,78,0.00,,,0.00,0,Wunderground v.1.15,2013-04-04 04:35:00,
2013-04-04 06:40:00,56.1,49.3,29.45,SSW,199,0.0,0.0,78,0.00,,,0.00,0,Wunderground v.1.15,2013-04-04 04:40:00,
2013-04-04 06:50:00,56.1,49.3,29.44,SSW,199,0.0,0.0,78,0.00,,,0.00,0,Wunderground v.1.15,2013-04-04 04:50:00,
2013-04-04 07:05:00,56.2,49.8,29.44,SSW,199,0.0,0.0,79,0.00,,,0.00,0,Wunderground v.1.15,2013-04-04 05:05:00,
2013-04-04 07:20:00,56.2,49.8,29.44,SSW,200,0.0,0.0,79,0.00,,,0.00,0,Wunderground v.1.15,2013-04-04 05:20:00,
2013-04-04 07:36:00,55.8,49.4,29.43,SSW,199,0.0,0.0,79,0.00,,,0.00,0,Wunderground v.1.15,2013-04-04 05:36:00,
2013-04-04 07:45:00,55.6,49.5,29.43,SSW,200,0.0,0.0,80,0.00,,,0.00,7,Wunderground v.1.15,2013-04-04 05:45:00,
2013-04-04 07:55:00,55.4,49.3,29.43,WSW,245,1.0,1.0,80,0.00,,,0.00,18,Wunderground v.1.15,2013-04-04 05:55:00,
2013-04-04 08:06:00,55.1,49.4,29.44,WSW,245,1.0,3.0,81,0.00,,,0.00,35,Wunderground v.1.15,2013-04-04 06:06:00,
2013-04-04 08:20:00,54.8,49.4,29.44,WSW,249,1.0,1.0,82,0.00,,,0.00,54,Wunderground v.1.15,2013-04-04 06:20:00,
2013-04-04 08:35:00,54.8,49.4,29.44,WSW,249,1.0,1.0,82,0.00,,,0.00,44,Wunderground v.1.15,2013-04-04 06:35:00,
2013-04-04 08:50:00,55.0,49.9,29.45,WSW,249,0.0,0.0,83,0.00,,,0.00,67,Wunderground v.1.15,2013-04-04 06:50:00,
2013-04-04 08:55:00,55.1,50.0,29.45,SSW,209,1.0,2.0,83,0.00,,,0.00,69,Wunderground v.1.15,2013-04-04 06:55:00,
2013-04-04 09:10:00,55.6,50.8,29.45,SSW,209,1.0,1.0,84,0.00,,,0.00,334,Wunderground v.1.15,2013-04-04 07:10:00,
2013-04-04 09:21:00,56.6,51.8,29.45,SSW,207,1.0,2.0,84,0.00,,,0.00,179,Wunderground v.1.15,2013-04-04 07:21:00,
2013-04-04 09:30:00,57.8,53.0,29.44,SSE,156,1.0,2.0,84,0.00,,,0.00,394,Wunderground v.1.15,2013-04-04 07:30:00,
2013-04-04 09:45:00,57.6,50.1,29.44,NW,323,3.0,3.0,76,0.00,,,0.00,334,Wunderground v.1.15,2013-04-04 07:45:00,
2013-04-04 09:55:00,58.4,49.0,29.44,West,276,3.0,3.0,71,0.00,,,0.00,417,Wunderground v.1.15,2013-04-04 07:55:00,
2013-04-04 10:06:00,59.2,48.6,29.44,West,267,2.0,2.0,68,0.00,,,0.00,513,Wunderground v.1.15,2013-04-04 08:06:00,
2013-04-04 10:20:00,60.9,47.8,29.44,SW,232,3.0,3.0,62,0.00,,,0.00,578,Wunderground v.1.15,2013-04-04 08:20:00,
2013-04-04 10:31:00,61.9,47.4,29.44,SW,223,3.0,6.0,59,0.00,,,0.00,527,Wunderground v.1.15,2013-04-04 08:31:00,
2013-04-04 10:45:00,62.1,46.2,29.45,South,188,3.0,3.0,56,0.00,,,0.00,540,Wunderground v.1.15,2013-04-04 08:45:00,
2013-04-04 11:05:00,62.9,44.5,29.45,WSW,244,4.0,4.0,51,0.00,,,0.00,369,Wunderground v.1.15,2013-04-04 09:05:00,
2013-04-04 11:16:00,62.7,44.3,29.46,WSW,249,5.0,8.0,51,0.00,,,0.00,935,Wunderground v.1.15,2013-04-04 09:16:00,
2013-04-04 11:25:00,62.3,43.4,29.46,West,265,5.0,8.0,50,0.00,,,0.00,422,Wunderground v.1.15,2013-04-04 09:25:00,
2013-04-04 11:35:00,62.0,43.7,29.46,WSW,252,4.0,8.0,51,0.00,,,0.00,496,Wunderground v.1.15,2013-04-04 09:35:00,
2013-04-04 11:46:00,62.0,43.7,29.46,NNW,337,4.0,4.0,51,0.00,,,0.00,613,Wunderground v.1.15,2013-04-04 09:46:00,
2013-04-04 11:55:00,63.8,44.8,29.46,NW,325,4.0,4.0,50,0.00,,,0.00,1099,Wunderground v.1.15,2013-04-04 09:55:00,
2013-04-04 12:05:00,63.9,44.9,29.46,NW,321,6.0,6.0,50,0.00,,,0.00,772,Wunderground v.1.15,2013-04-04 10:05:00,
2013-04-04 12:15:00,62.3,43.9,29.46,NW,306,7.0,7.0,51,0.00,,,0.00,316,Wunderground v.1.15,2013-04-04 10:15:00,
2013-04-04 12:25:00,61.4,44.1,29.46,SSE,153,5.0,5.0,53,0.00,,,0.00,381,Wunderground v.1.15,2013-04-04 10:25:00,
2013-04-04 12:35:00,61.3,45.0,29.46,West,259,3.0,3.0,55,0.00,,,0.00,656,Wunderground v.1.15,2013-04-04 10:35:00,
2013-04-04 12:46:00,62.5,46.1,29.46,SW,234,4.0,6.0,55,0.00,,,0.00,571,Wunderground v.1.15,2013-04-04 10:46:00,
2013-04-04 12:55:00,63.3,45.9,29.45,WSW,256,4.0,6.0,53,0.00,,,0.00,686,Wunderground v.1.15,2013-04-04 10:55:00,
2013-04-04 13:10:00,64.6,46.6,29.45,WSW,237,3.0,8.0,52,0.00,,,0.00,756,Wunderground v.1.15,2013-04-04 11:10:00,
2013-04-04 13:20:00,65.6,47.5,29.45,WSW,242,4.0,4.0,52,0.00,,,0.00,707,Wunderground v.1.15,2013-04-04 11:20:00,
2013-04-04 13:35:00,65.2,45.0,29.45,SW,222,5.0,5.0,48,0.00,,,0.00,540,Wunderground v.1.15,2013-04-04 11:35:00,
2013-04-04 13:51:00,65.4,45.7,29.45,WSW,254,4.0,4.0,49,0.00,,,0.00,606,Wunderground v.1.15,2013-04-04 11:51:00,
2013-04-04 14:05:00,64.6,46.1,29.45,SSW,201,6.0,6.0,51,0.00,,,0.00,802,Wunderground v.1.15,2013-04-04 12:05:00,
2013-04-04 14:11:00,64.8,46.2,29.44,WSW,256,5.0,7.0,51,0.00,,,0.00,715,Wunderground v.1.15,2013-04-04 12:11:00,
2013-04-04 14:20:00,63.9,42.1,29.44,WNW,287,5.0,6.0,45,0.00,,,0.00,401,Wunderground v.1.15,2013-04-04 12:20:00,
2013-04-04 14:26:00,63.6,41.9,29.44,West,267,6.0,6.0,45,0.00,,,0.00,494,Wunderground v.1.15,2013-04-04 12:26:00,
2013-04-04 14:35:00,64.1,44.5,29.44,WSW,244,5.0,7.0,49,0.00,,,0.00,926,Wunderground v.1.15,2013-04-04 12:35:00,
2013-04-04 14:45:00,65.2,45.5,29.44,SW,229,4.0,5.0,49,0.00,,,0.00,385,Wunderground v.1.15,2013-04-04 12:45:00,
2013-04-04 15:05:00,65.5,46.4,29.44,WSW,240,5.0,5.0,50,0.00,,,0.00,227,Wunderground v.1.15,2013-04-04 13:05:00,
2013-04-04 15:15:00,64.0,46.5,29.44,WSW,250,5.0,5.0,53,0.00,,,0.00,315,Wunderground v.1.15,2013-04-04 13:15:00,
2013-04-04 15:20:00,63.8,46.8,29.44,SW,229,5.0,5.0,54,0.00,,,0.00,352,Wunderground v.1.15,2013-04-04 13:20:00,
2013-04-04 15:35:00,64.1,47.6,29.44,South,171,4.0,5.0,55,0.00,,,0.00,257,Wunderground v.1.15,2013-04-04 13:35:00,
2013-04-04 15:51:00,64.7,46.7,29.44,WSW,257,4.0,4.0,52,0.00,,,0.00,870,Wunderground v.1.15,2013-04-04 13:51:00,
2013-04-04 16:10:00,66.1,46.4,29.45,West,267,5.0,6.0,49,0.00,,,0.00,877,Wunderground v.1.15,2013-04-04 14:10:00,
2013-04-04 16:16:00,65.4,45.7,29.44,SSW,205,6.0,6.0,49,0.00,,,0.00,803,Wunderground v.1.15,2013-04-04 14:16:00,
2013-04-04 16:30:00,65.0,45.4,29.45,SSW,209,6.0,7.0,49,0.00,,,0.00,712,Wunderground v.1.15,2013-04-04 14:30:00,
2013-04-04 16:45:00,64.6,45.5,29.45,WSW,257,6.0,6.0,50,0.00,,,0.00,677,Wunderground v.1.15,2013-04-04 14:45:00,
2013-04-04 17:05:00,64.5,46.0,29.45,SW,233,6.0,6.0,51,0.00,,,0.00,139,Wunderground v.1.15,2013-04-04 15:05:00,
2013-04-04 17:20:00,64.0,45.0,29.45,SE,126,6.0,6.0,50,0.00,,,0.00,598,Wunderground v.1.15,2013-04-04 15:20:00,
2013-04-04 17:35:00,64.0,46.0,29.46,SSW,207,4.0,4.0,52,0.00,,,0.00,555,Wunderground v.1.15,2013-04-04 15:35:00,
2013-04-04 17:50:00,63.2,45.3,29.46,West,259,5.0,5.0,52,0.00,,,0.00,538,Wunderground v.1.15,2013-04-04 15:50:00,
2013-04-04 18:05:00,62.8,45.9,29.47,WNW,300,5.0,5.0,54,0.00,,,0.00,455,Wunderground v.1.15,2013-04-04 16:05:00,
2013-04-04 18:20:00,62.0,45.6,29.47,WSW,238,6.0,6.0,55,0.00,,,0.00,149,Wunderground v.1.15,2013-04-04 16:20:00,
2013-04-04 18:36:00,60.9,45.6,29.47,WSW,250,4.0,4.0,57,0.00,,,0.00,155,Wunderground v.1.15,2013-04-04 16:36:00,
2013-04-04 18:45:00,60.4,45.5,29.47,SSW,192,4.0,4.0,58,0.00,,,0.00,120,Wunderground v.1.15,2013-04-04 16:45:00,
2013-04-04 19:05:00,60.0,45.6,29.48,WSW,245,2.0,2.0,59,0.00,,,0.00,128,Wunderground v.1.15,2013-04-04 17:05:00,
2013-04-04 19:15:00,60.0,45.6,29.48,SSW,199,2.0,2.0,59,0.00,,,0.00,207,Wunderground v.1.15,2013-04-04 17:15:00,
2013-04-04 19:30:00,60.4,46.0,29.49,South,190,2.0,4.0,59,0.00,,,0.00,74,Wunderground v.1.15,2013-04-04 17:30:00,
2013-04-04 19:35:00,60.3,45.9,29.49,South,183,3.0,4.0,59,0.00,,,0.00,60,Wunderground v.1.15,2013-04-04 17:35:00,
2013-04-04 19:51:00,59.2,45.3,29.49,SSE,168,4.0,4.0,60,0.00,,,0.00,28,Wunderground v.1.15,2013-04-04 17:51:00,
2013-04-04 20:10:00,58.5,44.2,29.50,South,175,2.0,2.0,59,0.00,,,0.00,0,Wunderground v.1.15,2013-04-04 18:10:00,
2013-04-04 20:20:00,58.1,44.3,29.50,SSE,168,2.0,2.0,60,0.00,,,0.00,0,Wunderground v.1.15,2013-04-04 18:20:00,
2013-04-04 20:30:00,57.7,43.9,29.50,SE,144,3.0,3.0,60,0.00,,,0.00,0,Wunderground v.1.15,2013-04-04 18:30:00,
2013-04-04 20:36:00,57.6,43.8,29.50,SSE,162,3.0,3.0,60,0.00,,,0.00,0,Wunderground v.1.15,2013-04-04 18:36:00,
2013-04-04 20:45:00,57.4,44.1,29.50,SSW,199,2.0,3.0,61,0.00,,,0.00,0,Wunderground v.1.15,2013-04-04 18:45:00,
2013-04-04 20:55:00,56.8,43.9,29.51,WSW,250,2.0,3.0,62,0.00,,,0.00,0,Wunderground v.1.15,2013-04-04 18:55:00,
2013-04-04 21:10:00,55.4,43.8,29.51,WSW,248,3.0,3.0,65,0.00,,,0.00,0,Wunderground v.1.15,2013-04-04 19:10:00,
2013-04-04 21:20:00,54.8,43.7,29.52,WSW,244,2.0,5.0,66,0.00,,,0.00,0,Wunderground v.1.15,2013-04-04 19:20:00,
2013-04-04 21:30:00,54.3,43.6,29.52,WSW,248,2.0,2.0,67,0.00,,,0.00,0,Wunderground v.1.15,2013-04-04 19:30:00,
2013-04-04 21:46:00,53.6,43.7,29.53,West,275,2.0,3.0,69,0.00,,,0.00,0,Wunderground v.1.15,2013-04-04 19:46:00,
2013-04-04 21:55:00,53.1,43.2,29.53,West,273,3.0,3.0,69,0.00,,,0.00,0,Wunderground v.1.15,2013-04-04 19:55:00,
2013-04-04 22:05:00,52.8,43.3,29.54,SW,233,2.0,3.0,70,0.00,,,0.00,0,Wunderground v.1.15,2013-04-04 20:05:00,
2013-04-04 22:15:00,52.5,43.4,29.54,West,278,3.0,3.0,71,0.00,,,0.00,0,Wunderground v.1.15,2013-04-04 20:15:00,
2013-04-04 22:30:00,52.4,43.6,29.54,West,281,3.0,3.0,72,0.00,,,0.00,0,Wunderground v.1.15,2013-04-04 20:30:00,
2013-04-04 22:45:00,52.4,43.6,29.54,West,271,3.0,3.0,72,0.00,,,0.00,0,Wunderground v.1.15,2013-04-04 20:45:00,
2013-04-04 23:05:00,52.6,44.2,29.55,WSW,250,2.0,2.0,73,0.00,,,0.00,0,Wunderground v.1.15,2013-04-04 21:05:00,
2013-04-04 23:16:00,52.7,44.3,29.55,WNW,293,2.0,3.0,73,0.00,,,0.00,0,Wunderground v.1.15,2013-04-04 21:16:00,
2013-04-04 23:25:00,52.9,44.5,29.55,WSW,256,3.0,3.0,73,0.00,,,0.00,0,Wunderground v.1.15,2013-04-04 21:25:00,
2013-04-04 23:35:00,53.0,44.6,29.55,West,259,2.0,2.0,73,0.00,,,0.00,0,Wunderground v.1.15,2013-04-04 21:35:00,
2013-04-04 23:50:00,52.9,44.5,29.56,West,262,2.0,2.0,73,0.00,,,0.00,0,Wunderground v.1.15,2013-04-04 21:50:00,